Time;durP1;ratioP1;P1;durP2;ratioP2;P2;SDS_P1;SDS_P2;PMS_P1;PMS_P2;Temp;Humidity;BMP_temperature;BMP_pressure;BME280_temperature;BME280_humidity;BME280_pressure;Samples;Min_cycle;Max_cycle;Signal;HPM_P1;HPM_P2
2023/12/21 00:01:03;;;;;;;6.82;1.40;;;;;;;10.38;100.00;100413.44;6119535;23;20333;-88
2023/12/21 00:03:29;;;;;;;6.95;1.10;;;;;;;10.42;100.00;100417.53;6120046;23;19998;-90
2023/12/21 00:05:54;;;;;;;11.32;2.03;;;;;;;10.40;100.00;100430.50;6120584;23;19994;-88
2023/12/21 00:08:19;;;;;;;7.75;1.88;;;;;;;10.39;100.00;100397.06;6120370;23;20014;-89
2023/12/21 00:10:45;;;;;;;6.95;2.20;;;;;;;10.42;100.00;100402.88;6120375;23;20002;-89
2023/12/21 00:13:10;;;;;;;9.23;2.42;;;;;;;10.27;100.00;100378.75;6119821;23;20074;-90
2023/12/21 00:15:35;;;;;;;9.23;1.88;;;;;;;10.39;100.00;100371.25;6119735;23;20033;-89
2023/12/21 00:18:01;;;;;;;13.35;2.75;;;;;;;10.35;100.00;100359.44;6119341;23;20002;-90
2023/12/21 00:20:26;;;;;;;11.20;2.13;;;;;;;10.37;100.00;100347.31;6119754;23;20006;-89
2023/12/21 00:22:51;;;;;;;8.30;1.90;;;;;;;10.30;100.00;100358.88;6120365;23;20063;-89
2023/12/21 00:25:17;;;;;;;5.68;1.50;;;;;;;10.34;100.00;100331.97;6120187;23;20013;-89
2023/12/21 00:27:42;;;;;;;7.93;1.70;;;;;;;10.24;100.00;100321.31;6120306;23;20009;-89
2023/12/21 00:30:08;;;;;;;10.30;2.55;;;;;;;10.35;100.00;100313.84;6118744;23;20009;-89
2023/12/21 00:32:33;;;;;;;7.22;1.65;;;;;;;10.39;100.00;100304.19;6120359;23;20310;-90
2023/12/21 00:34:59;;;;;;;11.52;2.42;;;;;;;10.40;100.00;100300.66;6120090;23;20337;-90
2023/12/21 00:37:24;;;;;;;8.80;1.88;;;;;;;10.31;100.00;100291.72;6120219;23;20371;-89
2023/12/21 00:39:49;;;;;;;12.60;2.22;;;;;;;10.35;100.00;100280.31;6120065;23;20010;-90
2023/12/21 00:42:15;;;;;;;6.00;1.95;;;;;;;10.36;100.00;100287.09;6120020;23;20420;-90
2023/12/21 00:44:40;;;;;;;6.80;1.70;;;;;;;10.38;100.00;100284.44;6120014;23;20005;-88
2023/12/21 00:47:06;;;;;;;6.85;1.48;;;;;;;10.35;100.00;100292.38;6120227;23;20078;-90
2023/12/21 00:49:31;;;;;;;7.38;1.63;;;;;;;10.39;100.00;100305.00;6120147;23;20036;-89
2023/12/21 00:51:56;;;;;;;10.90;1.80;;;;;;;10.29;100.00;100314.22;6120289;23;20032;-90
2023/12/21 00:54:22;;;;;;;7.90;1.50;;;;;;;10.32;100.00;100295.16;6119663;23;20496;-90
2023/12/21 00:56:47;;;;;;;7.47;2.08;;;;;;;10.32;100.00;100308.03;6120115;23;20002;-90
2023/12/21 00:59:12;;;;;;;6.15;1.95;;;;;;;10.32;100.00;100305.47;6118824;23;20417;-90
2023/12/21 01:01:38;;;;;;;5.07;1.70;;;;;;;10.32;100.00;100313.19;6121132;23;20068;-89
2023/12/21 01:04:04;;;;;;;8.02;1.85;;;;;;;10.31;100.00;100293.47;6121413;23;20002;-89
2023/12/21 01:06:29;;;;;;;6.43;1.40;;;;;;;10.31;100.00;100290.88;6121578;23;20421;-88
2023/12/21 01:08:54;;;;;;;12.73;2.70;;;;;;;10.33;100.00;100279.56;6120968;23;20002;-87
2023/12/21 01:11:20;;;;;;;7.35;1.90;;;;;;;10.31;100.00;100280.56;6121137;23;20038;-89
2023/12/21 01:13:45;;;;;;;7.97;2.03;;;;;;;10.27;100.00;100278.16;6121085;23;20492;-90
2023/12/21 01:16:10;;;;;;;6.60;1.98;;;;;;;10.23;100.00;100274.06;6120479;23;20094;-90
2023/12/21 01:18:37;;;;;;;10.68;1.75;;;;;;;10.34;100.00;100260.59;6120888;23;20104;-89
2023/12/21 01:21:02;;;;;;;11.18;1.90;;;;;;;10.27;100.00;100261.84;6121172;23;20511;-89
2023/12/21 01:23:28;;;;;;;10.32;1.45;;;;;;;10.34;100.00;100249.41;6121351;23;20033;-89
2023/12/21 01:25:53;;;;;;;8.38;1.63;;;;;;;10.29;100.00;100252.31;6121075;23;20006;-90
2023/12/21 01:28:18;;;;;;;5.65;1.38;;;;;;;10.25;100.00;100256.75;6121891;23;20002;-90
2023/12/21 01:30:44;;;;;;;6.75;1.70;;;;;;;10.21;100.00;100252.69;6121058;23;20322;-90
2023/12/21 01:33:09;;;;;;;9.15;1.55;;;;;;;10.20;100.00;100261.38;6121224;23;20378;-87
2023/12/21 01:35:34;;;;;;;11.13;2.15;;;;;;;10.30;100.00;100253.13;6120783;23;19998;-89
2023/12/21 01:38:00;;;;;;;10.52;2.15;;;;;;;10.31;100.00;100270.25;6121060;23;20060;-89
2023/12/21 01:40:25;;;;;;;10.00;2.20;;;;;;;10.25;100.00;100266.25;6120665;23;20010;-88
2023/12/21 01:42:50;;;;;;;8.10;2.28;;;;;;;10.24;100.00;100265.44;6121468;23;20032;-88
2023/12/21 01:45:18;;;;;;;8.32;2.20;;;;;;;10.20;100.00;100263.94;6121117;23;20041;-89
2023/12/21 01:47:46;;;;;;;17.90;2.67;;;;;;;10.30;100.00;100255.69;6120940;23;20012;-90
2023/12/21 01:50:11;;;;;;;9.05;2.95;;;;;;;10.26;100.00;100248.09;6121041;23;20017;-89
2023/12/21 01:52:37;;;;;;;9.93;2.35;;;;;;;10.18;100.00;100245.16;6121213;23;20002;-88
2023/12/21 01:55:04;;;;;;;8.60;2.38;;;;;;;10.26;100.00;100240.34;6120843;23;20045;-87
2023/12/21 01:57:30;;;;;;;24.85;5.65;;;;;;;10.30;100.00;100227.34;6120877;23;20006;-90
2023/12/21 01:59:55;;;;;;;14.82;2.25;;;;;;;10.33;100.00;100227.97;6121032;23;20475;-88
2023/12/21 02:02:21;;;;;;;12.30;3.25;;;;;;;10.31;100.00;100228.97;6121318;23;20364;-88
2023/12/21 02:04:47;;;;;;;7.18;2.08;;;;;;;10.34;100.00;100203.84;6121030;23;20028;-88
2023/12/21 02:07:12;;;;;;;14.52;2.63;;;;;;;10.29;100.00;100205.88;6120448;23;20033;-88
2023/12/21 02:09:38;;;;;;;11.63;2.58;;;;;;;10.33;100.00;100212.47;6120727;23;20430;-89
2023/12/21 02:12:03;;;;;;;13.48;3.00;;;;;;;10.37;100.00;100195.09;6120664;23;19998;-89
2023/12/21 02:14:29;;;;;;;13.55;2.85;;;;;;;10.24;100.00;100198.38;6120713;23;20009;-89
2023/12/21 02:17:03;;;;;;;9.18;2.25;;;;;;;10.36;100.00;100206.31;6121476;23;20008;-89
2023/12/21 02:19:29;;;;;;;18.27;3.97;;;;;;;10.35;100.00;100199.50;6119183;23;20002;-87
2023/12/21 02:21:56;;;;;;;15.93;3.08;;;;;;;10.37;100.00;100197.66;6121033;23;20082;-88
2023/12/21 02:24:22;;;;;;;16.17;2.95;;;;;;;10.28;100.00;100184.38;6119363;23;20006;-90
2023/12/21 02:26:48;;;;;;;18.92;2.92;;;;;;;10.38;100.00;100194.97;6119485;23;20085;-89
2023/12/21 02:29:13;;;;;;;12.85;2.10;;;;;;;10.38;100.00;100194.97;6121211;23;20002;-89
2023/12/21 02:31:39;;;;;;;13.48;2.63;;;;;;;10.39;100.00;100190.66;6121121;23;20006;-89
2023/12/21 02:34:08;;;;;;;19.83;2.97;;;;;;;10.41;100.00;100199.13;6120747;23;19998;-89
2023/12/21 02:36:34;;;;;;;12.18;2.55;;;;;;;10.40;100.00;100202.63;6120416;23;20424;-89
2023/12/21 02:39:00;;;;;;;19.95;3.20;;;;;;;10.26;100.00;100191.34;6120751;23;20012;-90
2023/12/21 02:41:25;;;;;;;12.27;3.50;;;;;;;10.36;100.00;100196.00;6120924;23;20093;-90
2023/12/21 02:43:51;;;;;;;12.10;2.30;;;;;;;10.32;100.00;100176.47;6121251;23;20048;-90
2023/12/21 02:46:18;;;;;;;15.80;2.97;;;;;;;10.35;100.00;100186.59;6120556;23;20006;-89
2023/12/21 02:48:44;;;;;;;11.20;2.83;;;;;;;10.33;100.00;100180.72;6120963;23;20010;-89
2023/12/21 02:51:09;;;;;;;14.82;3.10;;;;;;;10.29;100.00;100154.28;6121030;23;20503;-89
2023/12/21 02:53:34;;;;;;;15.80;3.30;;;;;;;10.37;100.00;100169.28;6119563;23;20077;-89
2023/12/21 02:56:00;;;;;;;17.60;2.75;;;;;;;10.21;100.00;100172.75;6120379;23;20006;-89
2023/12/21 02:58:25;;;;;;;11.82;2.60;;;;;;;10.24;100.00;100172.56;6121129;23;20002;-89
2023/12/21 03:00:50;;;;;;;18.73;3.08;;;;;;;10.24;100.00;100177.75;6120749;23;20421;-89
2023/12/21 03:03:16;;;;;;;13.07;2.58;;;;;;;10.30;100.00;100186.88;6120911;23;20512;-89
2023/12/21 03:05:41;;;;;;;12.43;2.58;;;;;;;10.36;100.00;100183.91;6118610;23;20499;-89
2023/12/21 03:08:06;;;;;;;17.77;2.75;;;;;;;10.34;100.00;100167.72;6121017;23;20034;-90
2023/12/21 03:10:32;;;;;;;14.07;3.03;;;;;;;10.34;100.00;100151.38;6120047;23;20440;-88
2023/12/21 03:12:58;;;;;;;15.05;3.97;;;;;;;10.35;100.00;100142.75;6120846;23;20036;-88
2023/12/21 03:15:23;;;;;;;18.40;2.63;;;;;;;10.40;100.00;100135.56;6120986;23;19998;-88
2023/12/21 03:17:49;;;;;;;20.00;3.10;;;;;;;10.40;100.00;100117.50;6119511;23;20012;-89
2023/12/21 03:20:14;;;;;;;16.17;2.95;;;;;;;10.33;100.00;100129.94;6120542;23;20056;-90
2023/12/21 03:22:40;;;;;;;16.45;3.25;;;;;;;10.35;100.00;100135.84;6119914;23;20041;-90
2023/12/21 03:25:05;;;;;;;13.95;2.65;;;;;;;10.19;100.00;100164.28;6119701;23;20429;-89
2023/12/21 03:27:31;;;;;;;12.32;2.38;;;;;;;10.33;100.00;100144.59;6120916;23;20014;-90
2023/12/21 03:29:56;;;;;;;11.30;2.72;;;;;;;10.41;100.00;100137.19;6120616;23;20429;-90
2023/12/21 03:32:22;;;;;;;11.45;2.35;;;;;;;10.40;100.00;100143.28;6120471;23;20075;-90
2023/12/21 03:34:49;;;;;;;8.75;2.20;;;;;;;10.41;100.00;100143.22;6120511;23;20002;-90
2023/12/21 03:37:14;;;;;;;10.43;2.63;;;;;;;10.40;100.00;100148.44;6120606;23;20005;-89
2023/12/21 03:39:39;;;;;;;14.50;2.45;;;;;;;10.37;100.00;100135.75;6120289;23;20005;-89
2023/12/21 03:42:05;;;;;;;11.70;2.80;;;;;;;10.40;100.00;100125.22;6118862;23;20041;-89
2023/12/21 03:44:30;;;;;;;11.75;2.90;;;;;;;10.35;100.00;100107.47;6120332;23;19998;-89
2023/12/21 03:46:55;;;;;;;26.02;3.55;;;;;;;10.47;100.00;100100.72;6118857;23;20057;-89
2023/12/21 03:49:21;;;;;;;12.70;2.33;;;;;;;10.32;100.00;100097.34;6120360;23;20133;-89
2023/12/21 03:51:46;;;;;;;14.35;2.60;;;;;;;10.41;100.00;100086.44;6120269;23;20002;-89
2023/12/21 03:54:11;;;;;;;11.13;2.20;;;;;;;10.35;100.00;100080.84;6119524;23;20435;-87
2023/12/21 03:56:40;;;;;;;12.30;2.60;;;;;;;10.42;100.00;100071.78;6120195;23;20406;-89
2023/12/21 03:59:05;;;;;;;16.27;2.85;;;;;;;10.42;100.00;100061.47;6120277;23;20006;-89
2023/12/21 04:01:31;;;;;;;13.43;2.65;;;;;;;10.44;100.00;100069.94;6119994;23;20010;-89
2023/12/21 04:03:56;;;;;;;12.85;2.35;;;;;;;10.40;100.00;100047.84;6119966;23;20002;-88
2023/12/21 04:06:23;;;;;;;10.55;2.35;;;;;;;10.40;100.00;100055.56;6120364;23;20026;-90
2023/12/21 04:08:48;;;;;;;13.80;2.63;;;;;;;10.46;100.00;100047.44;6120220;23;20049;-90
2023/12/21 04:11:14;;;;;;;11.68;2.80;;;;;;;10.49;100.00;100031.78;6118901;23;20006;-88
2023/12/21 04:13:39;;;;;;;13.65;2.60;;;;;;;10.39;100.00;100028.13;6123466;23;20051;-88
2023/12/21 04:16:08;;;;;;;11.32;2.10;;;;;;;10.49;100.00;100021.47;6122631;23;20148;-89
2023/12/21 04:18:33;;;;;;;15.43;2.20;;;;;;;10.40;100.00;100022.03;6122099;23;20445;-90
2023/12/21 04:20:59;;;;;;;9.90;1.70;;;;;;;10.44;100.00;100039.00;6122985;23;20036;-89
2023/12/21 04:23:24;;;;;;;9.70;1.90;;;;;;;10.50;100.00;100025.69;6122190;23;20382;-90
2023/12/21 04:25:50;;;;;;;10.18;2.28;;;;;;;10.44;100.00;100014.00;6125096;23;20009;-86
2023/12/21 04:28:15;;;;;;;13.77;1.85;;;;;;;10.53;100.00;100012.56;6126691;23;20036;-86
2023/12/21 04:30:41;;;;;;;14.85;2.45;;;;;;;10.50;100.00;100012.78;6125649;23;20006;-87
2023/12/21 04:33:07;;;;;;;8.95;1.60;;;;;;;10.48;100.00;100014.63;6124478;23;20058;-88
2023/12/21 04:35:32;;;;;;;11.50;2.05;;;;;;;10.50;100.00;100008.44;6123410;23;20010;-89
2023/12/21 04:37:57;;;;;;;13.18;2.45;;;;;;;10.55;100.00;99981.53;6123277;23;20489;-89
2023/12/21 04:40:23;;;;;;;16.40;2.55;;;;;;;10.61;100.00;99984.53;6124384;23;20417;-89
2023/12/21 04:42:54;;;;;;;16.40;2.00;;;;;;;10.67;100.00;99967.81;6123925;23;20006;-89
2023/12/21 04:45:20;;;;;;;14.15;2.20;;;;;;;10.64;100.00;99968.03;6126896;23;20445;-88
2023/12/21 04:47:45;;;;;;;14.07;1.98;;;;;;;10.54;100.00;99980.69;6124314;23;20056;-88
2023/12/21 04:50:11;;;;;;;12.57;2.05;;;;;;;10.57;100.00;99967.59;6122589;23;20029;-88
2023/12/21 04:52:37;;;;;;;11.38;2.30;;;;;;;10.55;100.00;99951.38;6122745;23;20072;-90
2023/12/21 04:55:03;;;;;;;13.27;2.67;;;;;;;10.64;100.00;99953.38;6121752;23;20017;-90
2023/12/21 04:57:28;;;;;;;14.02;2.50;;;;;;;10.62;100.00;99934.56;6121782;23;20077;-90
2023/12/21 04:59:54;;;;;;;18.75;2.85;;;;;;;10.59;100.00;99957.19;6119768;23;20006;-90
2023/12/21 05:02:19;;;;;;;9.35;2.35;;;;;;;10.60;100.00;99945.94;6121709;23;20002;-88
2023/12/21 05:04:45;;;;;;;10.52;2.35;;;;;;;10.59;100.00;99942.53;6123390;23;20002;-88
2023/12/21 05:07:10;;;;;;;8.88;2.08;;;;;;;10.64;100.00;99953.38;6124024;23;20037;-88
2023/12/21 05:09:36;;;;;;;18.30;1.92;;;;;;;10.63;100.00;99956.88;6123618;23;20032;-89
2023/12/21 05:12:02;;;;;;;14.27;1.83;;;;;;;10.64;100.00;99953.38;6124507;23;20006;-89
2023/12/21 05:14:28;;;;;;;13.25;2.05;;;;;;;10.61;100.00;99948.41;6122513;23;20334;-89
2023/12/21 05:16:53;;;;;;;14.60;2.25;;;;;;;10.70;100.00;99939.22;6122847;23;20005;-89
2023/12/21 05:19:18;;;;;;;8.60;2.10;;;;;;;10.74;100.00;99932.94;6122451;23;20402;-88
2023/12/21 05:21:44;;;;;;;10.73;3.17;;;;;;;10.71;100.00;99922.81;6121651;23;20438;-90
2023/12/21 05:24:09;;;;;;;21.42;3.05;;;;;;;10.61;100.00;99951.00;6120778;23;20002;-89
2023/12/21 05:26:34;;;;;;;10.70;1.70;;;;;;;10.69;100.00;99932.41;6121728;23;20375;-90
2023/12/21 05:29:02;;;;;;;13.88;2.47;;;;;;;10.67;100.00;99942.84;6121293;23;20081;-90
2023/12/21 05:31:27;;;;;;;11.15;2.30;;;;;;;10.68;100.00;99960.00;6121123;23;20002;-90
2023/12/21 05:33:53;;;;;;;18.13;2.40;;;;;;;10.65;100.00;99960.16;6122082;23;20059;-89
2023/12/21 05:36:22;;;;;;;18.23;3.20;;;;;;;10.71;100.00;99964.94;6121017;23;20006;-90
2023/12/21 05:38:48;;;;;;;13.63;2.65;;;;;;;10.73;100.00;99940.78;6119799;23;20464;-88
2023/12/21 05:41:14;;;;;;;14.50;3.08;;;;;;;10.74;100.00;99945.03;6119974;23;20013;-90
2023/12/21 05:43:40;;;;;;;16.38;2.75;;;;;;;10.74;100.00;99945.84;6118858;23;20006;-89
2023/12/21 05:46:06;;;;;;;17.50;2.13;;;;;;;10.74;100.00;99926.97;6120941;23;20002;-89
2023/12/21 05:48:31;;;;;;;14.38;2.42;;;;;;;10.74;100.00;99963.09;6121321;23;20002;-89
2023/12/21 05:50:57;;;;;;;16.08;2.88;;;;;;;10.61;100.00;99942.44;6119603;23;20014;-89
2023/12/21 05:53:22;;;;;;;17.40;2.50;;;;;;;10.65;100.00;99939.53;6120975;23;20093;-89
2023/12/21 05:55:48;;;;;;;16.63;2.65;;;;;;;10.56;100.00;99947.88;6120290;23;20341;-89
2023/12/21 05:58:14;;;;;;;10.70;2.05;;;;;;;10.73;100.00;99956.25;6121207;23;20002;-90
2023/12/21 06:00:39;;;;;;;10.25;2.78;;;;;;;10.80;100.00;99952.34;6118760;23;20010;-90
2023/12/21 06:03:05;;;;;;;9.68;1.88;;;;;;;10.66;100.00;99951.53;6118798;23;20291;-90
2023/12/21 06:05:31;;;;;;;13.15;2.15;;;;;;;10.71;100.00;99949.47;6121029;23;20013;-89
2023/12/21 06:07:57;;;;;;;14.52;1.92;;;;;;;10.74;100.00;99934.69;6121067;23;20076;-89
2023/12/21 06:10:22;;;;;;;17.10;1.73;;;;;;;10.69;100.00;99928.09;6121136;23;20152;-89
2023/12/21 06:12:48;;;;;;;8.07;2.40;;;;;;;10.70;100.00;99922.00;6121190;23;20005;-90
2023/12/21 06:15:14;;;;;;;9.27;2.10;;;;;;;10.80;100.00;99919.63;6119662;23;20035;-88
2023/12/21 06:17:39;;;;;;;12.00;2.58;;;;;;;10.68;100.00;99908.38;6121219;23;20006;-88
2023/12/21 06:20:06;;;;;;;11.32;2.10;;;;;;;10.77;100.00;99904.34;6121141;23;20002;-89
2023/12/21 06:22:31;;;;;;;8.68;2.22;;;;;;;10.70;100.00;99916.00;6121028;23;19998;-89
2023/12/21 06:24:57;;;;;;;9.65;1.95;;;;;;;10.69;100.00;99915.19;6120519;23;19998;-89
2023/12/21 06:27:22;;;;;;;9.73;2.22;;;;;;;10.78;100.00;99913.75;6120525;23;20005;-89
2023/12/21 06:29:47;;;;;;;10.05;2.53;;;;;;;10.75;100.00;99907.94;6120926;23;20036;-89
2023/12/21 06:32:13;;;;;;;16.73;2.85;;;;;;;10.56;100.00;99914.34;6120927;23;19994;-88
2023/12/21 06:34:38;;;;;;;10.50;2.65;;;;;;;10.55;100.00;99911.84;6119290;23;20006;-88
2023/12/21 06:37:04;;;;;;;17.05;2.80;;;;;;;10.70;100.00;99911.69;6120726;23;19998;-89
2023/12/21 06:39:31;;;;;;;10.15;2.83;;;;;;;10.65;100.00;99893.06;6120930;23;20006;-86
2023/12/21 06:41:56;;;;;;;19.35;2.88;;;;;;;10.59;100.00;99903.81;6121006;23;20001;-88
2023/12/21 06:44:22;;;;;;;17.95;3.03;;;;;;;10.63;100.00;99915.59;6120914;23;20040;-88
2023/12/21 06:46:47;;;;;;;9.77;2.28;;;;;;;10.59;100.00;99898.66;6120938;23;20056;-88
2023/12/21 06:49:12;;;;;;;11.13;3.63;;;;;;;10.63;100.00;99900.13;6121360;23;20084;-90
2023/12/21 06:51:38;;;;;;;15.43;2.60;;;;;;;10.58;100.00;99907.31;6120782;23;20017;-90
2023/12/21 06:54:04;;;;;;;10.98;2.10;;;;;;;10.61;100.00;99920.03;6120596;23;20075;-88
2023/12/21 06:56:29;;;;;;;13.27;2.00;;;;;;;10.60;100.00;99904.63;6120159;23;19995;-88
2023/12/21 06:58:55;;;;;;;15.77;2.95;;;;;;;10.61;100.00;99914.03;6121016;23;20082;-88
2023/12/21 07:01:27;;;;;;;12.60;2.30;;;;;;;10.72;100.00;99914.16;6120832;23;20059;-89
2023/12/21 07:03:53;;;;;;;14.50;2.67;;;;;;;10.62;100.00;99906.19;6120882;23;20013;-88
2023/12/21 07:06:19;;;;;;;19.85;3.40;;;;;;;10.63;100.00;99904.41;6121020;23;20006;-88
2023/12/21 07:08:44;;;;;;;17.83;3.30;;;;;;;10.65;100.00;99918.88;6121050;23;20052;-90
2023/12/21 07:11:10;;;;;;;18.60;3.42;;;;;;;10.66;100.00;99909.41;6120963;23;20045;-91
2023/12/21 07:13:35;;;;;;;15.73;3.13;;;;;;;10.64;100.00;99906.91;6120735;23;20006;-91
2023/12/21 07:16:01;;;;;;;24.60;4.05;;;;;;;10.59;100.00;99908.97;6120762;23;20357;-89
2023/12/21 07:18:27;;;;;;;17.15;2.95;;;;;;;10.60;100.00;99900.28;6119241;23;20013;-89
2023/12/21 07:20:52;;;;;;;16.85;3.33;;;;;;;10.60;100.00;99900.28;6120665;23;20018;-89
2023/12/21 07:23:18;;;;;;;14.80;3.30;;;;;;;10.60;100.00;99905.44;6120798;23;20009;-91
2023/12/21 07:25:43;;;;;;;22.38;3.83;;;;;;;10.68;100.00;99905.78;6120165;23;20034;-89
2023/12/21 07:28:08;;;;;;;15.75;2.90;;;;;;;10.52;100.00;99910.31;6120768;23;20002;-90
2023/12/21 07:30:34;;;;;;;18.73;2.92;;;;;;;10.56;100.00;99906.59;6120460;23;20370;-90
2023/12/21 07:32:59;;;;;;;12.52;3.30;;;;;;;10.57;100.00;99923.72;6120767;23;20002;-89
2023/12/21 07:35:25;;;;;;;14.75;3.15;;;;;;;10.55;100.00;99886.88;6118946;23;20082;-91
2023/12/21 07:37:50;;;;;;;13.82;3.15;;;;;;;10.56;100.00;99898.00;6119178;23;20034;-90
2023/12/21 07:40:15;;;;;;;15.85;3.20;;;;;;;10.54;100.00;99894.72;6120529;23;20333;-90
2023/12/21 07:42:41;;;;;;;13.88;3.25;;;;;;;10.51;100.00;99895.75;6120637;23;20340;-89
2023/12/21 07:45:06;;;;;;;13.77;2.88;;;;;;;10.62;100.00;99897.63;6120383;23;20006;-89
2023/12/21 07:47:32;;;;;;;17.27;3.78;;;;;;;10.54;100.00;99905.06;6120217;23;20365;-90
2023/12/21 07:49:57;;;;;;;15.45;3.00;;;;;;;10.52;100.00;99912.88;6119728;23;20321;-90
2023/12/21 07:52:23;;;;;;;16.92;4.25;;;;;;;10.44;100.00;99905.66;6118655;23;19998;-90
2023/12/21 07:54:48;;;;;;;13.68;3.08;;;;;;;10.52;100.00;99887.06;6119699;23;20006;-90
2023/12/21 07:57:14;;;;;;;12.10;2.92;;;;;;;10.49;100.00;99911.34;6120754;23;20013;-91
2023/12/21 07:59:40;;;;;;;17.75;3.55;;;;;;;10.41;100.00;99899.84;6120008;23;20013;-89
2023/12/21 08:02:06;;;;;;;10.25;2.70;;;;;;;10.38;100.00;99895.72;6120334;23;20077;-89
2023/12/21 08:04:32;;;;;;;16.58;2.55;;;;;;;10.45;100.00;99896.16;6120827;23;20455;-89
2023/12/21 08:06:58;;;;;;;16.98;3.08;;;;;;;10.32;100.00;99905.63;6120084;23;20010;-91
2023/12/21 08:09:23;;;;;;;22.45;4.10;;;;;;;10.39;100.00;99886.25;6121303;23;20002;-88
2023/12/21 08:11:49;;;;;;;14.85;3.22;;;;;;;10.31;100.00;99888.47;6120437;23;20376;-91
2023/12/21 08:14:14;;;;;;;11.68;2.85;;;;;;;10.36;100.00;99886.44;6119251;23;20002;-89
2023/12/21 08:16:40;;;;;;;17.67;2.92;;;;;;;10.39;100.00;99871.59;6121277;23;20077;-90
2023/12/21 08:19:05;;;;;;;17.85;3.58;;;;;;;10.35;100.00;99906.25;6121695;23;20429;-90
2023/12/21 08:21:30;;;;;;;14.15;3.47;;;;;;;10.29;100.00;99891.19;6121373;23;20020;-89
2023/12/21 08:23:56;;;;;;;19.85;3.75;;;;;;;10.33;100.00;99886.63;6121514;23;20444;-90
2023/12/21 08:26:21;;;;;;;12.85;2.72;;;;;;;10.37;100.00;99890.69;6120420;23;20322;-89
2023/12/21 08:28:47;;;;;;;18.25;3.67;;;;;;;10.41;100.00;99900.69;6121806;23;20081;-90
2023/12/21 08:31:25;;;;;;;16.08;3.60;;;;;;;10.33;100.00;99882.28;6121275;23;20026;-89
2023/12/21 08:33:51;;;;;;;16.48;2.92;;;;;;;10.27;100.00;99898.97;6121675;23;20067;-88
2023/12/21 08:36:16;;;;;;;20.75;3.67;;;;;;;10.40;100.00;99898.22;6121992;23;20005;-91
2023/12/21 08:38:41;;;;;;;19.05;3.28;;;;;;;10.39;100.00;99891.41;6121429;23;20010;-91
2023/12/21 08:41:07;;;;;;;23.55;3.60;;;;;;;10.43;100.00;99890.25;6121587;23;20009;-90
2023/12/21 08:43:32;;;;;;;26.25;3.83;;;;;;;10.43;100.00;99887.69;6120120;23;20006;-89
2023/12/21 08:45:58;;;;;;;15.52;4.13;;;;;;;10.46;100.00;99866.81;6118929;23;20006;-90
2023/12/21 08:48:23;;;;;;;14.25;3.22;;;;;;;10.52;100.00;99860.47;6121280;23;20059;-91
2023/12/21 08:50:49;;;;;;;17.10;2.97;;;;;;;10.45;100.00;99860.03;6121676;23;20232;-90
2023/12/21 08:53:14;;;;;;;30.38;3.95;;;;;;;10.55;100.00;99866.22;6121551;23;20002;-91
2023/12/21 08:55:39;;;;;;;14.80;2.92;;;;;;;10.62;100.00;99866.66;6119296;23;20009;-91
2023/12/21 08:58:05;;;;;;;14.88;3.95;;;;;;;10.57;100.00;99879.03;6121368;23;20006;-90
2023/12/21 09:00:30;;;;;;;16.20;3.47;;;;;;;10.63;100.00;99857.97;6121403;23;20063;-90
2023/12/21 09:02:55;;;;;;;15.93;2.70;;;;;;;10.60;100.00;99864.16;6121218;23;20006;-88
2023/12/21 09:05:21;;;;;;;13.98;3.05;;;;;;;10.80;100.00;99874.91;6121249;23;20006;-88
2023/12/21 09:07:46;;;;;;;14.05;2.55;;;;;;;10.77;100.00;99860.44;6121326;23;20009;-91
2023/12/21 09:10:11;;;;;;;11.98;2.90;;;;;;;10.79;100.00;99862.94;6121224;23;20115;-90
2023/12/21 09:12:37;;;;;;;12.07;2.33;;;;;;;10.89;100.00;99866.53;6120337;23;20006;-91
2023/12/21 09:15:04;;;;;;;11.43;3.15;;;;;;;10.89;100.00;99885.44;6121076;23;20006;-91
2023/12/21 09:17:29;;;;;;;14.18;3.22;;;;;;;10.91;100.00;99875.84;6121437;23;20371;-90
2023/12/21 09:19:55;;;;;;;11.10;2.08;;;;;;;10.93;100.00;99899.81;6120696;23;20002;-89
2023/12/21 09:22:21;;;;;;;10.20;1.75;;;;;;;11.08;100.00;99913.44;6119094;23;20029;-93
2023/12/21 09:24:47;;;;;;;10.10;1.90;;;;;;;11.09;100.00;99891.00;6120087;23;19997;-90
2023/12/21 09:27:14;;;;;;;9.50;1.98;;;;;;;11.16;100.00;99899.16;6120923;23;20014;-91
2023/12/21 09:29:40;;;;;;;15.82;1.92;;;;;;;11.12;100.00;99886.47;6120838;23;20048;-92
2023/12/21 09:32:06;;;;;;;13.30;3.03;;;;;;;11.16;100.00;99896.59;6118943;23;20006;-91
2023/12/21 09:34:31;;;;;;;12.00;2.00;;;;;;;11.11;100.00;99889.16;6121490;23;20009;-88
2023/12/21 09:36:57;;;;;;;11.48;2.22;;;;;;;11.11;100.00;99869.31;6121501;23;20002;-88
2023/12/21 09:39:22;;;;;;;13.93;2.50;;;;;;;11.17;100.00;99877.56;6120041;23;20017;-89
2023/12/21 09:42:05;;;;;;;10.73;3.42;;;;;;;11.14;100.00;99874.28;6122973;23;20077;-93
2023/12/21 09:44:31;;;;;;;14.25;2.30;;;;;;;11.18;100.00;99889.56;6122141;23;20029;-93
2023/12/21 09:46:57;;;;;;;15.43;3.38;;;;;;;11.12;100.00;99876.13;6122277;23;20025;-90
2023/12/21 09:49:22;;;;;;;11.43;2.13;;;;;;;11.18;100.00;99903.28;6121425;23;20538;-89
2023/12/21 09:51:49;;;;;;;8.82;2.35;;;;;;;11.09;100.00;99891.81;6121220;23;20428;-91
2023/12/21 09:54:17;;;;;;;12.80;3.25;;;;;;;11.05;100.00;99856.84;6118839;23;20014;-90
2023/12/21 09:56:44;;;;;;;13.75;2.40;;;;;;;11.05;100.00;99903.31;6119385;23;20472;-90
2023/12/21 09:59:10;;;;;;;12.27;3.55;;;;;;;11.13;100.00;99907.94;6120608;23;20006;-90
2023/12/21 10:01:36;;;;;;;12.75;3.58;;;;;;;11.20;100.00;99905.78;6119784;23;20354;-88
2023/12/21 10:04:01;;;;;;;14.73;3.65;;;;;;;11.27;100.00;99914.78;6120767;23;20593;-92
2023/12/21 10:06:27;;;;;;;7.50;2.30;;;;;;;11.21;100.00;99892.75;6119573;23;20059;-90
2023/12/21 10:08:53;;;;;;;11.00;3.08;;;;;;;11.38;100.00;99889.00;6120261;23;20425;-89
2023/12/21 10:11:19;;;;;;;12.73;2.92;;;;;;;11.32;100.00;99881.69;6121140;23;20077;-92
2023/12/21 10:13:48;;;;;;;10.65;2.95;;;;;;;11.40;100.00;99876.81;6119566;23;20012;-90
2023/12/21 10:16:13;;;;;;;9.25;2.33;;;;;;;11.86;100.00;99881.31;6120984;23;20002;-92
2023/12/21 10:18:39;;;;;;;12.43;2.95;;;;;;;12.18;100.00;99876.41;6121444;23;20041;-92
2023/12/21 10:21:05;;;;;;;9.25;3.22;;;;;;;12.43;100.00;99877.19;6120570;23;20013;-88
2023/12/21 10:23:31;;;;;;;10.27;2.70;;;;;;;12.55;100.00;99872.88;6120012;23;20002;-90
2023/12/21 10:25:56;;;;;;;14.23;3.47;;;;;;;12.79;100.00;99871.03;6120710;23;20025;-90
2023/12/21 10:28:23;;;;;;;10.18;2.80;;;;;;;12.53;100.00;99869.56;6121090;23;20417;-89
2023/12/21 10:30:55;;;;;;;12.68;2.75;;;;;;;12.85;100.00;99880.13;6120473;23;20435;-89
2023/12/21 10:33:20;;;;;;;8.65;1.90;;;;;;;12.42;100.00;99885.91;6120929;23;20030;-89
2023/12/21 10:35:46;;;;;;;11.50;2.47;;;;;;;12.44;100.00;99886.63;6120249;23;20001;-85
2023/12/21 10:38:11;;;;;;;7.97;2.30;;;;;;;12.11;100.00;99905.44;6119756;23;20025;-88
2023/12/21 10:40:37;;;;;;;11.20;2.30;;;;;;;12.10;100.00;99911.56;6120552;23;20007;-91
2023/12/21 10:43:02;;;;;;;10.63;2.00;;;;;;;12.22;100.00;99902.91;6120397;23;20002;-92
2023/12/21 10:45:28;;;;;;;9.98;2.25;;;;;;;12.08;100.00;99901.31;6119392;23;20009;-92
2023/12/21 10:47:55;;;;;;;18.52;3.15;;;;;;;12.07;100.00;99904.00;6120599;23;19999;-92
2023/12/21 10:50:20;;;;;;;10.90;2.22;;;;;;;12.18;100.00;99912.63;6124875;23;20016;-95
2023/12/21 10:52:47;;;;;;;8.70;2.63;;;;;;;11.87;100.00;99898.50;6124755;23;19999;-91
2023/12/21 10:55:17;;;;;;;9.73;2.40;;;;;;;11.98;100.00;99911.50;6123239;23;20025;-92
2023/12/21 10:57:43;;;;;;;8.93;2.80;;;;;;;12.23;100.00;99901.94;6120361;23;20006;-92
2023/12/21 11:00:15;;;;;;;8.70;2.92;;;;;;;12.19;100.00;99924.66;6119071;23;20014;-89
2023/12/21 11:02:47;;;;;;;;;;;;;;;12.32;100.00;99919.41;6120918;23;20002;-93
2023/12/21 11:05:20;;;;;;;19.15;3.63;;;;;;;12.47;100.00;99895.94;6120444;23;19909;-90
2023/12/21 11:07:50;;;;;;;20.92;3.53;;;;;;;12.76;100.00;99886.81;6118218;23;20333;-91
2023/12/21 11:10:17;;;;;;;19.45;3.58;;;;;;;12.33;100.00;99900.34;6120704;23;20055;-90